sensor_id;sensor_type;location;lat;lon;timestamp;pressure;altitude;pressure_sealevel;temperature;humidity
11672;BME280;5892;43.412;24.612;2023-01-27T00:00:00;99509.91;;;1.20;100.00
11672;BME280;5892;43.412;24.612;2023-01-27T00:02:27;99503.41;;;1.21;100.00
11672;BME280;5892;43.412;24.612;2023-01-27T00:04:54;99412.72;;;0.64;100.00
11672;BME280;5892;43.412;24.612;2023-01-27T00:07:22;99508.00;;;1.20;100.00
11672;BME280;5892;43.412;24.612;2023-01-27T00:09:50;99501.81;;;1.20;100.00
11672;BME280;5892;43.412;24.612;2023-01-27T00:12:19;99499.38;;;1.18;100.00
11672;BME280;5892;43.412;24.612;2023-01-27T00:15:13;99502.59;;;1.15;100.00
11672;BME280;5892;43.412;24.612;2023-01-27T00:17:41;99451.63;;;0.94;100.00
11672;BME280;5892;43.412;24.612;2023-01-27T00:20:09;99475.09;;;0.98;100.00
11672;BME280;5892;43.412;24.612;2023-01-27T00:22:36;99439.19;;;0.82;100.00
11672;BME280;5892;43.412;24.612;2023-01-27T00:25:21;99481.56;;;1.02;100.00
11672;BME280;5892;43.412;24.612;2023-01-27T00:27:48;99489.66;;;1.07;100.00
11672;BME280;5892;43.412;24.612;2023-01-27T00:30:15;99480.50;;;1.08;100.00
11672;BME280;5892;43.412;24.612;2023-01-27T00:32:42;99431.91;;;0.83;100.00
11672;BME280;5892;43.412;24.612;2023-01-27T00:35:26;99481.31;;;1.04;100.00
11672;BME280;5892;43.412;24.612;2023-01-27T00:37:54;99474.53;;;1.01;100.00
11672;BME280;5892;43.412;24.612;2023-01-27T00:40:22;99480.19;;;1.05;100.00
11672;BME280;5892;43.412;24.612;2023-01-27T00:42:49;99491.81;;;1.05;100.00
11672;BME280;5892;43.412;24.612;2023-01-27T00:45:18;99474.00;;;0.99;100.00
11672;BME280;5892;43.412;24.612;2023-01-27T00:48:02;99455.66;;;1.01;100.00
11672;BME280;5892;43.412;24.612;2023-01-27T00:50:30;99461.59;;;1.08;100.00
11672;BME280;5892;43.412;24.612;2023-01-27T00:52:57;99464.81;;;1.05;100.00
11672;BME280;5892;43.412;24.612;2023-01-27T00:55:28;99456.72;;;1.05;100.00
11672;BME280;5892;43.412;24.612;2023-01-27T00:57:54;99420.56;;;0.81;100.00
11672;BME280;5892;43.412;24.612;2023-01-27T01:00:21;99442.97;;;0.87;100.00
11672;BME280;5892;43.412;24.612;2023-01-27T01:02:48;99462.69;;;1.07;100.00
11672;BME280;5892;43.412;24.612;2023-01-27T01:05:15;99460.25;;;1.06;100.00
11672;BME280;5892;43.412;24.612;2023-01-27T01:07:42;99456.47;;;1.02;100.00
11672;BME280;5892;43.412;24.612;2023-01-27T01:10:10;99443.25;;;1.00;100.00
11672;BME280;5892;43.412;24.612;2023-01-27T01:12:38;99453.50;;;0.98;100.00
11672;BME280;5892;43.412;24.612;2023-01-27T01:15:06;99454.84;;;1.01;100.00
11672;BME280;5892;43.412;24.612;2023-01-27T01:17:33;99458.59;;;0.84;100.00
11672;BME280;5892;43.412;24.612;2023-01-27T01:19:59;99454.56;;;0.87;100.00
11672;BME280;5892;43.412;24.612;2023-01-27T01:22:26;99469.41;;;1.00;100.00
11672;BME280;5892;43.412;24.612;2023-01-27T01:24:53;99472.09;;;1.00;100.00
11672;BME280;5892;43.412;24.612;2023-01-27T01:27:20;99482.38;;;1.08;100.00
11672;BME280;5892;43.412;24.612;2023-01-27T01:29:49;99476.72;;;0.94;100.00
11672;BME280;5892;43.412;24.612;2023-01-27T01:32:15;99474.53;;;0.96;100.00
11672;BME280;5892;43.412;24.612;2023-01-27T01:34:42;99468.06;;;0.92;100.00
11672;BME280;5892;43.412;24.612;2023-01-27T01:37:09;99459.16;;;0.92;100.00
11672;BME280;5892;43.412;24.612;2023-01-27T01:39:36;99459.44;;;1.00;100.00
11672;BME280;5892;43.412;24.612;2023-01-27T01:42:03;99434.63;;;0.83;100.00
11672;BME280;5892;43.412;24.612;2023-01-27T01:44:31;99459.41;;;0.95;100.00
11672;BME280;5892;43.412;24.612;2023-01-27T01:46:59;99448.09;;;0.93;100.00
11672;BME280;5892;43.412;24.612;2023-01-27T01:49:28;99457.84;;;0.99;100.00
11672;BME280;5892;43.412;24.612;2023-01-27T01:52:01;99462.13;;;1.00;100.00
11672;BME280;5892;43.412;24.612;2023-01-27T01:54:31;99457.84;;;1.04;100.00
11672;BME280;5892;43.412;24.612;2023-01-27T01:57:02;99453.22;;;1.00;100.00
11672;BME280;5892;43.412;24.612;2023-01-27T01:59:32;99431.09;;;0.72;100.00
11672;BME280;5892;43.412;24.612;2023-01-27T02:02:06;99435.16;;;0.95;100.00
11672;BME280;5892;43.412;24.612;2023-01-27T02:04:39;99446.47;;;0.87;100.00
11672;BME280;5892;43.412;24.612;2023-01-27T02:07:11;99411.13;;;0.73;100.00
11672;BME280;5892;43.412;24.612;2023-01-27T02:09:42;99396.88;;;0.83;100.00
11672;BME280;5892;43.412;24.612;2023-01-27T02:12:09;99410.59;;;0.87;100.00
11672;BME280;5892;43.412;24.612;2023-01-27T02:14:36;99383.63;;;0.81;100.00
11672;BME280;5892;43.412;24.612;2023-01-27T02:17:04;99353.16;;;0.81;100.00
11672;BME280;5892;43.412;24.612;2023-01-27T02:19:39;99367.19;;;0.93;100.00
11672;BME280;5892;43.412;24.612;2023-01-27T02:22:13;99362.88;;;0.97;100.00
11672;BME280;5892;43.412;24.612;2023-01-27T02:24:46;99348.59;;;0.81;100.00
11672;BME280;5892;43.412;24.612;2023-01-27T02:27:16;99383.91;;;1.00;100.00
11672;BME280;5892;43.412;24.612;2023-01-27T02:29:43;99375.25;;;0.58;100.00
11672;BME280;5892;43.412;24.612;2023-01-27T02:32:21;99407.34;;;0.95;100.00
11672;BME280;5892;43.412;24.612;2023-01-27T02:34:49;99373.38;;;0.63;100.00
11672;BME280;5892;43.412;24.612;2023-01-27T02:37:16;99406.56;;;0.94;100.00
11672;BME280;5892;43.412;24.612;2023-01-27T02:39:44;99427.06;;;0.95;100.00
11672;BME280;5892;43.412;24.612;2023-01-27T02:42:14;99389.03;;;0.76;100.00
11672;BME280;5892;43.412;24.612;2023-01-27T02:44:42;99366.91;;;0.59;100.00
11672;BME280;5892;43.412;24.612;2023-01-27T02:47:09;99414.13;;;0.82;100.00
11672;BME280;5892;43.412;24.612;2023-01-27T02:49:36;99396.84;;;0.73;100.00
11672;BME280;5892;43.412;24.612;2023-01-27T02:52:03;99413.56;;;0.90;100.00
11672;BME280;5892;43.412;24.612;2023-01-27T02:54:30;99397.38;;;0.90;100.00
11672;BME280;5892;43.412;24.612;2023-01-27T02:56:57;99394.16;;;0.93;100.00
11672;BME280;5892;43.412;24.612;2023-01-27T02:59:24;99396.88;;;0.98;100.00
11672;BME280;5892;43.412;24.612;2023-01-27T03:01:52;99390.66;;;1.03;100.00
11672;BME280;5892;43.412;24.612;2023-01-27T03:04:19;99374.72;;;0.91;100.00
11672;BME280;5892;43.412;24.612;2023-01-27T03:06:46;99378.25;;;0.97;100.00
11672;BME280;5892;43.412;24.612;2023-01-27T03:09:13;99360.69;;;0.89;100.00
11672;BME280;5892;43.412;24.612;2023-01-27T03:11:40;99377.69;;;1.05;100.00
11672;BME280;5892;43.412;24.612;2023-01-27T03:14:24;99378.25;;;1.02;100.00
11672;BME280;5892;43.412;24.612;2023-01-27T03:17:10;99363.94;;;1.01;100.00
11672;BME280;5892;43.412;24.612;2023-01-27T03:19:54;99381.19;;;1.00;100.00
11672;BME280;5892;43.412;24.612;2023-01-27T03:22:21;99396.88;;;0.98;100.00
11672;BME280;5892;43.412;24.612;2023-01-27T03:24:47;99404.94;;;1.03;100.00
11672;BME280;5892;43.412;24.612;2023-01-27T03:27:15;99383.38;;;0.78;100.00
11672;BME280;5892;43.412;24.612;2023-01-27T03:29:42;99308.13;;;0.31;100.00
11672;BME280;5892;43.412;24.612;2023-01-27T03:32:23;99393.88;;;0.90;100.00
11672;BME280;5892;43.412;24.612;2023-01-27T03:34:50;99390.91;;;0.96;100.00
11672;BME280;5892;43.412;24.612;2023-01-27T03:37:17;99380.69;;;0.93;100.00
11672;BME280;5892;43.412;24.612;2023-01-27T03:40:01;99377.44;;;0.91;100.00
11672;BME280;5892;43.412;24.612;2023-01-27T03:42:46;99362.06;;;0.87;100.00
11672;BME280;5892;43.412;24.612;2023-01-27T03:45:30;99369.59;;;0.95;100.00
11672;BME280;5892;43.412;24.612;2023-01-27T03:48:16;99343.19;;;0.81;100.00
11672;BME280;5892;43.412;24.612;2023-01-27T03:50:45;99350.47;;;0.86;100.00
11672;BME280;5892;43.412;24.612;2023-01-27T03:53:17;99358.00;;;0.84;100.00
11672;BME280;5892;43.412;24.612;2023-01-27T03:55:44;99388.22;;;1.06;100.00
11672;BME280;5892;43.412;24.612;2023-01-27T03:58:18;99396.03;;;1.08;100.00
11672;BME280;5892;43.412;24.612;2023-01-27T04:00:46;99397.94;;;1.07;100.00
11672;BME280;5892;43.412;24.612;2023-01-27T04:03:13;99394.41;;;1.02;100.00
11672;BME280;5892;43.412;24.612;2023-01-27T04:06:01;99363.41;;;0.84;100.00
11672;BME280;5892;43.412;24.612;2023-01-27T04:08:45;99359.09;;;0.88;100.00
11672;BME280;5892;43.412;24.612;2023-01-27T04:11:13;99374.19;;;0.84;100.00
11672;BME280;5892;43.412;24.612;2023-01-27T04:13:59;99385.00;;;0.99;100.00
11672;BME280;5892;43.412;24.612;2023-01-27T04:16:26;99344.00;;;0.72;100.00
11672;BME280;5892;43.412;24.612;2023-01-27T04:18:55;99376.91;;;0.99;100.00
11672;BME280;5892;43.412;24.612;2023-01-27T04:21:24;99371.47;;;0.89;100.00
11672;BME280;5892;43.412;24.612;2023-01-27T04:23:51;99352.09;;;0.97;100.00
11672;BME280;5892;43.412;24.612;2023-01-27T04:26:19;99351.53;;;0.90;100.00
11672;BME280;5892;43.412;24.612;2023-01-27T04:28:46;99314.88;;;0.74;100.00
11672;BME280;5892;43.412;24.612;2023-01-27T04:31:13;99386.06;;;1.13;100.00
11672;BME280;5892;43.412;24.612;2023-01-27T04:33:41;99396.84;;;1.08;100.00
11672;BME280;5892;43.412;24.612;2023-01-27T04:36:08;99403.88;;;1.04;100.00
11672;BME280;5892;43.412;24.612;2023-01-27T04:38:37;99394.44;;;0.97;100.00
11672;BME280;5892;43.412;24.612;2023-01-27T04:41:04;99393.88;;;0.95;100.00
11672;BME280;5892;43.412;24.612;2023-01-27T04:43:31;99400.91;;;0.96;100.00
11672;BME280;5892;43.412;24.612;2023-01-27T04:45:58;99405.47;;;1.05;100.00
11672;BME280;5892;43.412;24.612;2023-01-27T04:48:24;99405.47;;;1.05;100.00
11672;BME280;5892;43.412;24.612;2023-01-27T04:50:52;99287.91;;;0.33;100.00
11672;BME280;5892;43.412;24.612;2023-01-27T04:53:19;99404.94;;;1.03;100.00
11672;BME280;5892;43.412;24.612;2023-01-27T04:55:48;99400.63;;;1.02;100.00
11672;BME280;5892;43.412;24.612;2023-01-27T04:58:16;99396.56;;;1.05;100.00
11672;BME280;5892;43.412;24.612;2023-01-27T05:00:43;99399.28;;;0.90;100.00
11672;BME280;5892;43.412;24.612;2023-01-27T05:03:11;99389.59;;;0.99;100.00
11672;BME280;5892;43.412;24.612;2023-01-27T05:05:38;99396.03;;;1.08;100.00
11672;BME280;5892;43.412;24.612;2023-01-27T05:08:07;99395.50;;;1.11;100.00
11672;BME280;5892;43.412;24.612;2023-01-27T05:10:35;99384.69;;;1.11;100.00
11672;BME280;5892;43.412;24.612;2023-01-27T05:13:04;99392.28;;;1.09;100.00
11672;BME280;5892;43.412;24.612;2023-01-27T05:15:31;99383.38;;;1.13;100.00
11672;BME280;5892;43.412;24.612;2023-01-27T05:17:58;99385.00;;;1.14;100.00
11672;BME280;5892;43.412;24.612;2023-01-27T05:20:25;99387.69;;;1.24;100.00
11672;BME280;5892;43.412;24.612;2023-01-27T05:22:51;99384.44;;;1.17;100.00
11672;BME280;5892;43.412;24.612;2023-01-27T05:25:41;99339.41;;;0.93;100.00
11672;BME280;5892;43.412;24.612;2023-01-27T05:28:09;99372.56;;;1.13;100.00
11672;BME280;5892;43.412;24.612;2023-01-27T05:30:36;99382.28;;;1.09;100.00
11672;BME280;5892;43.412;24.612;2023-01-27T05:33:03;99338.88;;;0.91;100.00
11672;BME280;5892;43.412;24.612;2023-01-27T05:35:31;99377.72;;;1.10;100.00
11672;BME280;5892;43.412;24.612;2023-01-27T05:37:59;99378.78;;;1.14;100.00
11672;BME280;5892;43.412;24.612;2023-01-27T05:40:26;99390.38;;;1.19;100.00
11672;BME280;5892;43.412;24.612;2023-01-27T05:42:53;99385.78;;;1.20;100.00
11672;BME280;5892;43.412;24.612;2023-01-27T05:45:21;99392.53;;;1.12;100.00
11672;BME280;5892;43.412;24.612;2023-01-27T05:47:48;99386.06;;;1.13;100.00
11672;BME280;5892;43.412;24.612;2023-01-27T05:50:16;99390.91;;;1.11;100.00
11672;BME280;5892;43.412;24.612;2023-01-27T05:52:43;99398.19;;;1.21;100.00
11672;BME280;5892;43.412;24.612;2023-01-27T05:55:10;99393.59;;;1.21;100.00
11672;BME280;5892;43.412;24.612;2023-01-27T05:57:37;99397.38;;;1.20;100.00
11672;BME280;5892;43.412;24.612;2023-01-27T06:00:05;99390.91;;;1.21;100.00
11672;BME280;5892;43.412;24.612;2023-01-27T06:02:33;99395.78;;;1.19;100.00
11672;BME280;5892;43.412;24.612;2023-01-27T06:05:01;99361.00;;;0.98;100.00
11672;BME280;5892;43.412;24.612;2023-01-27T06:07:28;99379.59;;;0.99;100.00
11672;BME280;5892;43.412;24.612;2023-01-27T06:09:55;99402.50;;;1.12;100.00
11672;BME280;5892;43.412;24.612;2023-01-27T06:12:22;99403.88;;;1.19;100.00
11672;BME280;5892;43.412;24.612;2023-01-27T06:14:49;99408.19;;;1.25;100.00
11672;BME280;5892;43.412;24.612;2023-01-27T06:17:16;99411.16;;;1.24;100.00
11672;BME280;5892;43.412;24.612;2023-01-27T06:19:44;99405.22;;;1.17;100.00
11672;BME280;5892;43.412;24.612;2023-01-27T06:22:11;99418.97;;;1.25;100.00
11672;BME280;5892;43.412;24.612;2023-01-27T06:24:45;99427.06;;;1.20;100.00
11672;BME280;5892;43.412;24.612;2023-01-27T06:27:31;99414.94;;;1.13;100.00
11672;BME280;5892;43.412;24.612;2023-01-27T06:30:00;99394.69;;;1.10;100.00
11672;BME280;5892;43.412;24.612;2023-01-27T06:32:28;99449.75;;;1.30;100.00
11672;BME280;5892;43.412;24.612;2023-01-27T06:34:56;99397.38;;;1.15;100.00
11672;BME280;5892;43.412;24.612;2023-01-27T06:37:23;99433.81;;;1.38;100.00
11672;BME280;5892;43.412;24.612;2023-01-27T06:39:50;99434.63;;;1.39;100.00
11672;BME280;5892;43.412;24.612;2023-01-27T06:42:17;99428.66;;;1.42;100.00
11672;BME280;5892;43.412;24.612;2023-01-27T06:44:44;99428.66;;;1.32;100.00
11672;BME280;5892;43.412;24.612;2023-01-27T06:47:11;99417.34;;;1.40;100.00
11672;BME280;5892;43.412;24.612;2023-01-27T06:49:40;99418.97;;;1.36;100.00
11672;BME280;5892;43.412;24.612;2023-01-27T06:52:08;99415.47;;;1.35;100.00
11672;BME280;5892;43.412;24.612;2023-01-27T06:54:36;99410.06;;;1.30;100.00
11672;BME280;5892;43.412;24.612;2023-01-27T06:57:02;99411.13;;;1.39;100.00
11672;BME280;5892;43.412;24.612;2023-01-27T06:59:30;99413.56;;;1.46;100.00
11672;BME280;5892;43.412;24.612;2023-01-27T07:01:57;99427.56;;;1.48;100.00
11672;BME280;5892;43.412;24.612;2023-01-27T07:04:24;99398.72;;;1.33;100.00
11672;BME280;5892;43.412;24.612;2023-01-27T07:06:51;99431.88;;;1.54;100.00
11672;BME280;5892;43.412;24.612;2023-01-27T07:09:19;99400.59;;;1.33;100.00
11672;BME280;5892;43.412;24.612;2023-01-27T07:11:46;99418.69;;;1.37;100.00
11672;BME280;5892;43.412;24.612;2023-01-27T07:14:13;99406.56;;;1.24;100.00
11672;BME280;5892;43.412;24.612;2023-01-27T07:16:40;99443.53;;;1.39;100.00
11672;BME280;5892;43.412;24.612;2023-01-27T07:19:07;99441.63;;;1.50;100.00
11672;BME280;5892;43.412;24.612;2023-01-27T07:21:34;99437.84;;;1.46;100.00
11672;BME280;5892;43.412;24.612;2023-01-27T07:24:01;99437.28;;;1.54;100.00
11672;BME280;5892;43.412;24.612;2023-01-27T07:26:29;99432.97;;;1.53;100.00
11672;BME280;5892;43.412;24.612;2023-01-27T07:28:56;99436.25;;;1.40;100.00
11672;BME280;5892;43.412;24.612;2023-01-27T07:31:23;99431.34;;;1.47;100.00
11672;BME280;5892;43.412;24.612;2023-01-27T07:33:52;99422.19;;;1.48;100.00
11672;BME280;5892;43.412;24.612;2023-01-27T07:36:20;99406.56;;;1.35;100.00
11672;BME280;5892;43.412;24.612;2023-01-27T07:38:50;99406.53;;;1.40;100.00
11672;BME280;5892;43.412;24.612;2023-01-27T07:41:17;99427.03;;;1.61;100.00
11672;BME280;5892;43.412;24.612;2023-01-27T07:43:46;99419.75;;;1.56;100.00
11672;BME280;5892;43.412;24.612;2023-01-27T07:46:13;99437.00;;;1.65;100.00
11672;BME280;5892;43.412;24.612;2023-01-27T07:48:40;99425.38;;;1.70;100.00
11672;BME280;5892;43.412;24.612;2023-01-27T07:51:10;99354.72;;;1.33;100.00
11672;BME280;5892;43.412;24.612;2023-01-27T07:53:37;99421.88;;;1.64;100.00
11672;BME280;5892;43.412;24.612;2023-01-27T07:56:06;99391.97;;;1.41;100.00
11672;BME280;5892;43.412;24.612;2023-01-27T07:58:36;99416.47;;;1.64;100.00
11672;BME280;5892;43.412;24.612;2023-01-27T08:01:06;99399.50;;;1.44;100.00
11672;BME280;5892;43.412;24.612;2023-01-27T08:03:34;99425.97;;;1.57;100.00
11672;BME280;5892;43.412;24.612;2023-01-27T08:06:03;99431.34;;;1.47;100.00
11672;BME280;5892;43.412;24.612;2023-01-27T08:08:33;99441.06;;;1.53;100.00
11672;BME280;5892;43.412;24.612;2023-01-27T08:11:01;99429.75;;;1.56;100.00
11672;BME280;5892;43.412;24.612;2023-01-27T08:13:29;99425.97;;;1.57;100.00
11672;BME280;5892;43.412;24.612;2023-01-27T08:15:58;99430.53;;;1.66;100.00
11672;BME280;5892;43.412;24.612;2023-01-27T08:18:27;99424.56;;;1.64;100.00
11672;BME280;5892;43.412;24.612;2023-01-27T08:20:58;99403.28;;;1.48;100.00
11672;BME280;5892;43.412;24.612;2023-01-27T08:23:29;99393.56;;;1.47;100.00
11672;BME280;5892;43.412;24.612;2023-01-27T08:25:58;99419.75;;;1.56;100.00
11672;BME280;5892;43.412;24.612;2023-01-27T08:28:27;99416.22;;;1.61;100.00
11672;BME280;5892;43.412;24.612;2023-01-27T08:31:01;99397.63;;;1.49;100.00
11672;BME280;5892;43.412;24.612;2023-01-27T08:33:30;99409.19;;;1.60;100.00
11672;BME280;5892;43.412;24.612;2023-01-27T08:36:01;99403.22;;;1.73;100.00
11672;BME280;5892;43.412;24.612;2023-01-27T08:38:28;99395.72;;;1.55;100.00
11672;BME280;5892;43.412;24.612;2023-01-27T08:40:55;99333.16;;;1.22;100.00
11672;BME280;5892;43.412;24.612;2023-01-27T08:43:22;99393.56;;;1.57;100.00
11672;BME280;5892;43.412;24.612;2023-01-27T08:45:50;99396.75;;;1.69;100.00
11672;BME280;5892;43.412;24.612;2023-01-27T08:48:18;99395.09;;;1.78;100.00
11672;BME280;5892;43.412;24.612;2023-01-27T08:50:48;99404.78;;;1.89;100.00
11672;BME280;5892;43.412;24.612;2023-01-27T08:53:18;99408.03;;;1.91;100.00
11672;BME280;5892;43.412;24.612;2023-01-27T08:55:47;99407.22;;;1.91;100.00
11672;BME280;5892;43.412;24.612;2023-01-27T08:58:14;99412.38;;;1.82;100.00
11672;BME280;5892;43.412;24.612;2023-01-27T09:00:42;99381.13;;;1.66;100.00
11672;BME280;5892;43.412;24.612;2023-01-27T09:03:09;99408.06;;;1.86;100.00
11672;BME280;5892;43.412;24.612;2023-01-27T09:05:36;99415.31;;;1.91;100.00
11672;BME280;5892;43.412;24.612;2023-01-27T09:08:06;99423.69;;;1.94;100.00
11672;BME280;5892;43.412;24.612;2023-01-27T09:10:36;99407.78;;;1.88;100.00
11672;BME280;5892;43.412;24.612;2023-01-27T09:13:03;99394.53;;;1.86;100.00
11672;BME280;5892;43.412;24.612;2023-01-27T09:15:30;99406.94;;;1.97;100.00
11672;BME280;5892;43.412;24.612;2023-01-27T09:18:00;99402.03;;;2.04;100.00
11672;BME280;5892;43.412;24.612;2023-01-27T09:20:27;99403.38;;;2.07;100.00
11672;BME280;5892;43.412;24.612;2023-01-27T09:22:55;99391.81;;;1.96;100.00
11672;BME280;5892;43.412;24.612;2023-01-27T09:25:23;99391.78;;;2.01;100.00
11672;BME280;5892;43.412;24.612;2023-01-27T09:27:53;99396.69;;;1.89;100.00
11672;BME280;5892;43.412;24.612;2023-01-27T09:30:20;99396.16;;;1.92;100.00
11672;BME280;5892;43.412;24.612;2023-01-27T09:32:47;99317.97;;;1.57;100.00
11672;BME280;5892;43.412;24.612;2023-01-27T09:35:14;99378.28;;;2.01;100.00
11672;BME280;5892;43.412;24.612;2023-01-27T09:37:43;99384.72;;;2.05;100.00
11672;BME280;5892;43.412;24.612;2023-01-27T09:40:21;99356.69;;;1.91;100.00
11672;BME280;5892;43.412;24.612;2023-01-27T09:43:13;99381.50;;;2.08;100.00
11672;BME280;5892;43.412;24.612;2023-01-27T09:46:04;99373.94;;;2.00;100.00
11672;BME280;5892;43.412;24.612;2023-01-27T09:48:45;99367.97;;;2.08;100.00
11672;BME280;5892;43.412;24.612;2023-01-27T09:51:25;99369.88;;;2.08;100.00
11672;BME280;5892;43.412;24.612;2023-01-27T09:54:07;99370.34;;;2.15;100.00
11672;BME280;5892;43.412;24.612;2023-01-27T09:56:47;99355.56;;;2.07;100.00
11672;BME280;5892;43.412;24.612;2023-01-27T09:59:45;99382.56;;;2.12;100.00
11672;BME280;5892;43.412;24.612;2023-01-27T10:02:25;99350.69;;;2.04;100.00
11672;BME280;5892;43.412;24.612;2023-01-27T10:05:12;99343.16;;;2.01;100.00
11672;BME280;5892;43.412;24.612;2023-01-27T10:08:06;99353.94;;;2.06;100.00
11672;BME280;5892;43.412;24.612;2023-01-27T10:10:47;99363.38;;;2.14;100.00
11672;BME280;5892;43.412;24.612;2023-01-27T10:13:27;99358.78;;;2.15;100.00
11672;BME280;5892;43.412;24.612;2023-01-27T10:16:11;99345.84;;;2.01;100.00
11672;BME280;5892;43.412;24.612;2023-01-27T10:18:52;99291.97;;;1.71;100.00
11672;BME280;5892;43.412;24.612;2023-01-27T10:21:30;99362.53;;;2.19;100.00
11672;BME280;5892;43.412;24.612;2023-01-27T10:24:06;99286.88;;;1.59;100.00
11672;BME280;5892;43.412;24.612;2023-01-27T10:26:38;99293.28;;;1.79;100.00
11672;BME280;5892;43.412;24.612;2023-01-27T10:29:08;99358.75;;;2.20;100.00
11672;BME280;5892;43.412;24.612;2023-01-27T10:31:40;99360.34;;;2.21;100.00
11672;BME280;5892;43.412;24.612;2023-01-27T10:34:19;99349.00;;;2.19;100.00
11672;BME280;5892;43.412;24.612;2023-01-27T10:36:52;99327.81;;;1.87;100.00
11672;BME280;5892;43.412;24.612;2023-01-27T10:39:28;99349.06;;;2.08;100.00
11672;BME280;5892;43.412;24.612;2023-01-27T10:42:06;99335.78;;;2.12;100.00
11672;BME280;5892;43.412;24.612;2023-01-27T10:44:48;99324.72;;;2.13;100.00
11672;BME280;5892;43.412;24.612;2023-01-27T10:47:35;99315.50;;;2.20;100.00
11672;BME280;5892;43.412;24.612;2023-01-27T10:50:08;99312.50;;;2.21;100.00
11672;BME280;5892;43.412;24.612;2023-01-27T10:52:39;99313.06;;;2.18;100.00
11672;BME280;5892;43.412;24.612;2023-01-27T10:55:15;99323.81;;;2.28;100.00
11672;BME280;5892;43.412;24.612;2023-01-27T10:57:47;99304.72;;;2.15;100.00
11672;BME280;5892;43.412;24.612;2023-01-27T11:00:26;99300.41;;;2.13;100.00
11672;BME280;5892;43.412;24.612;2023-01-27T11:03:04;99317.00;;;2.36;100.00
11672;BME280;5892;43.412;24.612;2023-01-27T11:05:36;99289.72;;;2.32;100.00
11672;BME280;5892;43.412;24.612;2023-01-27T11:08:08;99299.34;;;2.48;100.00
11672;BME280;5892;43.412;24.612;2023-01-27T11:10:40;99300.66;;;2.56;100.00
11672;BME280;5892;43.412;24.612;2023-01-27T11:13:30;99301.22;;;2.48;100.00
11672;BME280;5892;43.412;24.612;2023-01-27T11:15:59;99301.19;;;2.53;100.00
11672;BME280;5892;43.412;24.612;2023-01-27T11:18:29;99308.19;;;2.59;100.00
11672;BME280;5892;43.412;24.612;2023-01-27T11:20:59;99306.00;;;2.61;100.00
11672;BME280;5892;43.412;24.612;2023-01-27T11:23:30;99287.31;;;2.65;100.00
11672;BME280;5892;43.412;24.612;2023-01-27T11:26:04;99297.78;;;2.76;100.00
11672;BME280;5892;43.412;24.612;2023-01-27T11:28:36;99289.34;;;2.78;100.00
11672;BME280;5892;43.412;24.612;2023-01-27T11:31:12;99293.63;;;2.84;100.00
11672;BME280;5892;43.412;24.612;2023-01-27T11:33:53;99297.72;;;2.81;100.00
11672;BME280;5892;43.412;24.612;2023-01-27T11:36:23;99301.59;;;2.70;100.00
11672;BME280;5892;43.412;24.612;2023-01-27T11:38:51;99281.94;;;2.60;100.00
11672;BME280;5892;43.412;24.612;2023-01-27T11:41:18;99297.88;;;2.66;100.00
11672;BME280;5892;43.412;24.612;2023-01-27T11:43:46;99288.09;;;2.70;100.00
11672;BME280;5892;43.412;24.612;2023-01-27T11:46:17;99286.94;;;2.76;100.00
11672;BME280;5892;43.412;24.612;2023-01-27T11:48:48;99296.69;;;2.72;100.00
11672;BME280;5892;43.412;24.612;2023-01-27T11:51:18;99286.38;;;2.79;100.00
11672;BME280;5892;43.412;24.612;2023-01-27T11:53:49;99291.22;;;2.82;100.00
11672;BME280;5892;43.412;24.612;2023-01-27T11:56:18;99290.47;;;2.77;100.00
11672;BME280;5892;43.412;24.612;2023-01-27T11:58:55;99262.03;;;2.50;100.00
11672;BME280;5892;43.412;24.612;2023-01-27T12:01:36;99287.13;;;2.56;100.00
11672;BME280;5892;43.412;24.612;2023-01-27T12:04:11;99297.44;;;2.49;100.00
11672;BME280;5892;43.412;24.612;2023-01-27T12:06:45;99290.09;;;2.54;100.00
11672;BME280;5892;43.412;24.612;2023-01-27T12:09:31;99294.50;;;2.45;100.00
11672;BME280;5892;43.412;24.612;2023-01-27T12:12:20;99285.81;;;2.48;100.00
11672;BME280;5892;43.412;24.612;2023-01-27T12:14:50;99264.84;;;2.35;100.00
11672;BME280;5892;43.412;24.612;2023-01-27T12:17:23;99292.84;;;2.49;100.00
11672;BME280;5892;43.412;24.612;2023-01-27T12:19:55;99285.47;;;2.60;100.00
11672;BME280;5892;43.412;24.612;2023-01-27T12:22:25;99288.44;;;2.59;100.00
11672;BME280;5892;43.412;24.612;2023-01-27T12:24:56;99278.25;;;2.50;100.00
11672;BME280;5892;43.412;24.612;2023-01-27T12:27:27;99292.44;;;2.66;100.00
11672;BME280;5892;43.412;24.612;2023-01-27T12:29:59;99289.97;;;2.70;100.00
11672;BME280;5892;43.412;24.612;2023-01-27T12:32:37;99295.03;;;2.81;100.00
11672;BME280;5892;43.412;24.612;2023-01-27T12:35:17;99299.09;;;2.79;100.00
11672;BME280;5892;43.412;24.612;2023-01-27T12:37:46;99299.56;;;2.86;100.00
11672;BME280;5892;43.412;24.612;2023-01-27T12:40:18;99301.69;;;2.89;100.00
11672;BME280;5892;43.412;24.612;2023-01-27T12:42:47;99304.03;;;3.01;100.00
11672;BME280;5892;43.412;24.612;2023-01-27T12:45:22;99297.72;;;3.10;100.00
11672;BME280;5892;43.412;24.612;2023-01-27T12:47:59;99304.41;;;3.18;100.00
11672;BME280;5892;43.412;24.612;2023-01-27T12:50:33;99302.84;;;3.12;100.00
11672;BME280;5892;43.412;24.612;2023-01-27T12:53:05;99314.94;;;3.19;100.00
11672;BME280;5892;43.412;24.612;2023-01-27T12:55:38;99305.28;;;3.13;100.00
11672;BME280;5892;43.412;24.612;2023-01-27T12:58:32;99275.19;;;2.91;100.00
11672;BME280;5892;43.412;24.612;2023-01-27T13:01:02;99300.75;;;3.04;100.00
11672;BME280;5892;43.412;24.612;2023-01-27T13:03:35;99303.22;;;3.00;100.00
11672;BME280;5892;43.412;24.612;2023-01-27T13:06:05;99299.56;;;2.86;100.00
11672;BME280;5892;43.412;24.612;2023-01-27T13:08:37;99308.72;;;2.90;100.00
11672;BME280;5892;43.412;24.612;2023-01-27T13:11:05;99311.22;;;2.86;100.00
11672;BME280;5892;43.412;24.612;2023-01-27T13:13:33;99312.88;;;2.82;100.00
11672;BME280;5892;43.412;24.612;2023-01-27T13:16:05;99314.16;;;2.90;100.00
11672;BME280;5892;43.412;24.612;2023-01-27T13:18:35;99306.88;;;2.85;100.00